sensor_id;sensor_type;location;lat;lon;timestamp;temperature;humidity
53310;DHT22;39197;53.200;5.792;2022-08-01T00:00:30;17.80;99.90
53310;DHT22;39197;53.200;5.792;2022-08-01T00:02:56;17.80;99.90
53310;DHT22;39197;53.200;5.792;2022-08-01T00:05:22;17.70;99.90
53310;DHT22;39197;53.200;5.792;2022-08-01T00:07:48;17.70;99.90
53310;DHT22;39197;53.200;5.792;2022-08-01T00:10:15;17.70;99.90
53310;DHT22;39197;53.200;5.792;2022-08-01T00:12:42;17.60;99.90
53310;DHT22;39197;53.200;5.792;2022-08-01T00:15:10;17.60;99.90
53310;DHT22;39197;53.200;5.792;2022-08-01T00:17:36;17.60;99.90
53310;DHT22;39197;53.200;5.792;2022-08-01T00:20:03;17.60;99.90
53310;DHT22;39197;53.200;5.792;2022-08-01T00:22:31;17.50;99.90
53310;DHT22;39197;53.200;5.792;2022-08-01T00:24:56;17.50;99.90
53310;DHT22;39197;53.200;5.792;2022-08-01T00:27:22;17.50;99.90
53310;DHT22;39197;53.200;5.792;2022-08-01T00:29:47;17.50;99.90
53310;DHT22;39197;53.200;5.792;2022-08-01T00:32:13;17.50;99.90
53310;DHT22;39197;53.200;5.792;2022-08-01T00:34:39;17.50;99.90
53310;DHT22;39197;53.200;5.792;2022-08-01T00:37:04;17.40;99.90
53310;DHT22;39197;53.200;5.792;2022-08-01T00:39:30;17.40;99.90
53310;DHT22;39197;53.200;5.792;2022-08-01T00:41:57;17.40;99.90
53310;DHT22;39197;53.200;5.792;2022-08-01T00:44:23;17.40;99.90
53310;DHT22;39197;53.200;5.792;2022-08-01T00:46:49;17.40;99.90
53310;DHT22;39197;53.200;5.792;2022-08-01T00:49:14;17.40;99.90
53310;DHT22;39197;53.200;5.792;2022-08-01T00:51:40;17.40;99.90
53310;DHT22;39197;53.200;5.792;2022-08-01T00:54:05;17.40;99.90
53310;DHT22;39197;53.200;5.792;2022-08-01T00:56:31;17.40;99.90
53310;DHT22;39197;53.200;5.792;2022-08-01T00:58:57;17.40;99.90
53310;DHT22;39197;53.200;5.792;2022-08-01T01:01:24;17.40;99.90
53310;DHT22;39197;53.200;5.792;2022-08-01T01:03:51;17.40;99.90
53310;DHT22;39197;53.200;5.792;2022-08-01T01:06:51;17.40;99.90
53310;DHT22;39197;53.200;5.792;2022-08-01T01:09:35;17.30;99.90
53310;DHT22;39197;53.200;5.792;2022-08-01T01:12:27;17.30;99.90
53310;DHT22;39197;53.200;5.792;2022-08-01T01:20:15;17.30;99.90
53310;DHT22;39197;53.200;5.792;2022-08-01T01:31:14;17.20;99.90
53310;DHT22;39197;53.200;5.792;2022-08-01T01:33:41;17.20;99.90
53310;DHT22;39197;53.200;5.792;2022-08-01T01:36:09;17.20;99.90
53310;DHT22;39197;53.200;5.792;2022-08-01T01:38:40;17.20;99.90
53310;DHT22;39197;53.200;5.792;2022-08-01T01:41:11;17.20;99.90
53310;DHT22;39197;53.200;5.792;2022-08-01T01:43:39;17.20;99.90
53310;DHT22;39197;53.200;5.792;2022-08-01T01:46:06;17.20;99.90
53310;DHT22;39197;53.200;5.792;2022-08-01T01:48:34;17.10;99.90
53310;DHT22;39197;53.200;5.792;2022-08-01T01:51:01;17.10;99.90
53310;DHT22;39197;53.200;5.792;2022-08-01T01:53:28;17.10;99.90
53310;DHT22;39197;53.200;5.792;2022-08-01T01:55:57;17.10;99.90
53310;DHT22;39197;53.200;5.792;2022-08-01T01:58:24;17.10;99.90
53310;DHT22;39197;53.200;5.792;2022-08-01T02:00:52;17.00;99.90
53310;DHT22;39197;53.200;5.792;2022-08-01T02:03:19;17.00;99.90
53310;DHT22;39197;53.200;5.792;2022-08-01T02:05:46;17.00;99.90
53310;DHT22;39197;53.200;5.792;2022-08-01T02:08:15;17.00;99.90
53310;DHT22;39197;53.200;5.792;2022-08-01T02:10:42;17.00;99.90
53310;DHT22;39197;53.200;5.792;2022-08-01T02:13:29;17.00;99.90
53310;DHT22;39197;53.200;5.792;2022-08-01T02:15:55;17.00;99.90
53310;DHT22;39197;53.200;5.792;2022-08-01T02:18:21;17.00;99.90
53310;DHT22;39197;53.200;5.792;2022-08-01T02:20:48;16.90;99.90
53310;DHT22;39197;53.200;5.792;2022-08-01T02:23:16;16.90;99.90
53310;DHT22;39197;53.200;5.792;2022-08-01T02:25:46;16.90;99.90
53310;DHT22;39197;53.200;5.792;2022-08-01T02:28:20;16.90;99.90
53310;DHT22;39197;53.200;5.792;2022-08-01T02:30:50;16.90;99.90
53310;DHT22;39197;53.200;5.792;2022-08-01T02:33:23;16.90;99.90
53310;DHT22;39197;53.200;5.792;2022-08-01T02:35:52;16.90;99.90
53310;DHT22;39197;53.200;5.792;2022-08-01T02:38:21;16.90;99.90
53310;DHT22;39197;53.200;5.792;2022-08-01T02:40:50;17.00;99.90
53310;DHT22;39197;53.200;5.792;2022-08-01T02:43:21;16.90;99.90
53310;DHT22;39197;53.200;5.792;2022-08-01T02:45:52;16.80;99.90
53310;DHT22;39197;53.200;5.792;2022-08-01T02:48:20;16.90;99.90
53310;DHT22;39197;53.200;5.792;2022-08-01T02:50:48;16.90;99.90
53310;DHT22;39197;53.200;5.792;2022-08-01T02:53:17;16.80;99.90
53310;DHT22;39197;53.200;5.792;2022-08-01T02:55:43;16.80;99.90
53310;DHT22;39197;53.200;5.792;2022-08-01T02:58:14;16.80;99.90
53310;DHT22;39197;53.200;5.792;2022-08-01T03:00:42;16.80;99.90
53310;DHT22;39197;53.200;5.792;2022-08-01T03:03:09;16.70;99.90
53310;DHT22;39197;53.200;5.792;2022-08-01T03:05:36;16.70;99.90
53310;DHT22;39197;53.200;5.792;2022-08-01T03:08:03;16.70;99.90
53310;DHT22;39197;53.200;5.792;2022-08-01T03:10:31;16.70;99.90
53310;DHT22;39197;53.200;5.792;2022-08-01T03:12:59;16.70;99.90
53310;DHT22;39197;53.200;5.792;2022-08-01T03:15:26;16.70;99.90
53310;DHT22;39197;53.200;5.792;2022-08-01T03:17:54;16.60;99.90
53310;DHT22;39197;53.200;5.792;2022-08-01T03:20:21;16.60;99.90
53310;DHT22;39197;53.200;5.792;2022-08-01T03:22:51;16.60;99.90
53310;DHT22;39197;53.200;5.792;2022-08-01T03:25:18;16.60;99.90
53310;DHT22;39197;53.200;5.792;2022-08-01T03:27:50;16.60;99.90
53310;DHT22;39197;53.200;5.792;2022-08-01T03:30:17;16.60;99.90
53310;DHT22;39197;53.200;5.792;2022-08-01T03:32:42;16.60;99.90
53310;DHT22;39197;53.200;5.792;2022-08-01T03:35:08;16.60;99.90
53310;DHT22;39197;53.200;5.792;2022-08-01T03:37:42;16.60;99.90
53310;DHT22;39197;53.200;5.792;2022-08-01T03:40:20;16.60;99.90
53310;DHT22;39197;53.200;5.792;2022-08-01T03:42:49;16.60;99.90
53310;DHT22;39197;53.200;5.792;2022-08-01T03:45:23;16.60;99.90
53310;DHT22;39197;53.200;5.792;2022-08-01T03:47:54;16.50;99.90
53310;DHT22;39197;53.200;5.792;2022-08-01T03:50:22;16.50;99.90
53310;DHT22;39197;53.200;5.792;2022-08-01T03:52:51;16.50;99.90
53310;DHT22;39197;53.200;5.792;2022-08-01T03:55:18;16.50;99.90
53310;DHT22;39197;53.200;5.792;2022-08-01T03:57:46;16.50;99.90
53310;DHT22;39197;53.200;5.792;2022-08-01T04:00:13;16.40;99.90
53310;DHT22;39197;53.200;5.792;2022-08-01T04:02:45;16.40;99.90
53310;DHT22;39197;53.200;5.792;2022-08-01T04:05:11;16.40;99.90
53310;DHT22;39197;53.200;5.792;2022-08-01T04:07:36;16.40;99.90
53310;DHT22;39197;53.200;5.792;2022-08-01T04:10:05;16.40;99.90
53310;DHT22;39197;53.200;5.792;2022-08-01T04:12:30;16.40;99.90
53310;DHT22;39197;53.200;5.792;2022-08-01T04:14:56;16.40;99.90
53310;DHT22;39197;53.200;5.792;2022-08-01T04:17:21;16.40;99.90
53310;DHT22;39197;53.200;5.792;2022-08-01T04:19:47;16.40;99.90
53310;DHT22;39197;53.200;5.792;2022-08-01T04:22:14;16.40;99.90
53310;DHT22;39197;53.200;5.792;2022-08-01T04:24:44;16.40;99.90
53310;DHT22;39197;53.200;5.792;2022-08-01T04:27:13;16.40;99.90
53310;DHT22;39197;53.200;5.792;2022-08-01T04:29:42;16.40;99.90
53310;DHT22;39197;53.200;5.792;2022-08-01T04:32:11;16.40;99.90
53310;DHT22;39197;53.200;5.792;2022-08-01T04:34:39;16.40;99.90
53310;DHT22;39197;53.200;5.792;2022-08-01T04:37:09;16.40;99.90
53310;DHT22;39197;53.200;5.792;2022-08-01T04:39:37;16.40;99.90
53310;DHT22;39197;53.200;5.792;2022-08-01T04:42:05;16.40;99.90
53310;DHT22;39197;53.200;5.792;2022-08-01T04:44:32;16.40;99.90
53310;DHT22;39197;53.200;5.792;2022-08-01T04:47:02;16.40;99.90
53310;DHT22;39197;53.200;5.792;2022-08-01T04:49:31;16.40;99.90
53310;DHT22;39197;53.200;5.792;2022-08-01T04:51:56;16.40;99.90
53310;DHT22;39197;53.200;5.792;2022-08-01T04:54:29;16.40;99.90
53310;DHT22;39197;53.200;5.792;2022-08-01T04:56:55;16.40;99.90
53310;DHT22;39197;53.200;5.792;2022-08-01T04:59:31;16.40;99.90
53310;DHT22;39197;53.200;5.792;2022-08-01T05:02:15;16.40;99.90
53310;DHT22;39197;53.200;5.792;2022-08-01T05:04:42;16.40;99.90
53310;DHT22;39197;53.200;5.792;2022-08-01T05:07:08;16.40;99.90
53310;DHT22;39197;53.200;5.792;2022-08-01T05:09:34;16.40;99.90
53310;DHT22;39197;53.200;5.792;2022-08-01T05:12:02;16.40;99.90
53310;DHT22;39197;53.200;5.792;2022-08-01T05:14:29;16.40;99.90
53310;DHT22;39197;53.200;5.792;2022-08-01T05:16:58;16.40;99.90
53310;DHT22;39197;53.200;5.792;2022-08-01T05:19:24;16.40;99.90
53310;DHT22;39197;53.200;5.792;2022-08-01T05:21:50;16.40;99.90
53310;DHT22;39197;53.200;5.792;2022-08-01T05:24:15;16.40;99.90
53310;DHT22;39197;53.200;5.792;2022-08-01T05:26:41;16.40;99.90
53310;DHT22;39197;53.200;5.792;2022-08-01T05:29:07;16.50;99.90
53310;DHT22;39197;53.200;5.792;2022-08-01T05:31:33;16.50;99.90
53310;DHT22;39197;53.200;5.792;2022-08-01T05:34:03;16.50;99.90
53310;DHT22;39197;53.200;5.792;2022-08-01T05:36:29;16.50;99.90
53310;DHT22;39197;53.200;5.792;2022-08-01T05:38:55;16.50;99.90
53310;DHT22;39197;53.200;5.792;2022-08-01T05:41:20;16.50;99.90
53310;DHT22;39197;53.200;5.792;2022-08-01T05:43:46;16.50;99.90
53310;DHT22;39197;53.200;5.792;2022-08-01T05:46:12;16.60;99.90
53310;DHT22;39197;53.200;5.792;2022-08-01T05:48:37;16.60;99.90
53310;DHT22;39197;53.200;5.792;2022-08-01T05:51:03;16.60;99.90
53310;DHT22;39197;53.200;5.792;2022-08-01T05:53:29;16.70;99.90
53310;DHT22;39197;53.200;5.792;2022-08-01T05:55:54;16.70;99.90
53310;DHT22;39197;53.200;5.792;2022-08-01T05:58:20;16.70;99.90
53310;DHT22;39197;53.200;5.792;2022-08-01T06:00:46;16.80;99.90
53310;DHT22;39197;53.200;5.792;2022-08-01T06:03:12;16.80;99.90
53310;DHT22;39197;53.200;5.792;2022-08-01T06:05:37;16.80;99.90
53310;DHT22;39197;53.200;5.792;2022-08-01T06:08:03;16.90;99.90
53310;DHT22;39197;53.200;5.792;2022-08-01T06:10:29;16.90;99.90
53310;DHT22;39197;53.200;5.792;2022-08-01T06:12:54;17.00;99.90
53310;DHT22;39197;53.200;5.792;2022-08-01T06:15:20;17.10;99.90
53310;DHT22;39197;53.200;5.792;2022-08-01T06:17:46;17.00;99.90
53310;DHT22;39197;53.200;5.792;2022-08-01T06:20:11;17.10;99.90
53310;DHT22;39197;53.200;5.792;2022-08-01T06:22:37;17.10;99.90
53310;DHT22;39197;53.200;5.792;2022-08-01T06:25:03;17.10;99.90
53310;DHT22;39197;53.200;5.792;2022-08-01T06:27:28;17.10;99.90
53310;DHT22;39197;53.200;5.792;2022-08-01T06:29:54;17.10;99.90
53310;DHT22;39197;53.200;5.792;2022-08-01T06:32:23;17.00;99.90
53310;DHT22;39197;53.200;5.792;2022-08-01T06:34:50;17.10;99.90
53310;DHT22;39197;53.200;5.792;2022-08-01T06:37:15;17.10;99.90
53310;DHT22;39197;53.200;5.792;2022-08-01T06:39:41;17.10;99.90
53310;DHT22;39197;53.200;5.792;2022-08-01T06:42:07;17.10;99.90
53310;DHT22;39197;53.200;5.792;2022-08-01T06:44:32;17.10;99.90
53310;DHT22;39197;53.200;5.792;2022-08-01T06:46:58;17.10;99.90
53310;DHT22;39197;53.200;5.792;2022-08-01T06:49:24;17.10;99.90
53310;DHT22;39197;53.200;5.792;2022-08-01T06:51:50;17.10;99.90
53310;DHT22;39197;53.200;5.792;2022-08-01T06:54:15;17.20;99.90
53310;DHT22;39197;53.200;5.792;2022-08-01T06:56:42;17.30;99.90
53310;DHT22;39197;53.200;5.792;2022-08-01T06:59:08;17.30;99.90
53310;DHT22;39197;53.200;5.792;2022-08-01T07:01:33;17.40;99.90
53310;DHT22;39197;53.200;5.792;2022-08-01T07:03:59;17.40;99.90
53310;DHT22;39197;53.200;5.792;2022-08-01T07:06:25;17.50;99.90
53310;DHT22;39197;53.200;5.792;2022-08-01T07:08:52;17.60;99.90
53310;DHT22;39197;53.200;5.792;2022-08-01T07:11:19;17.70;99.90
53310;DHT22;39197;53.200;5.792;2022-08-01T07:13:45;18.30;99.90
53310;DHT22;39197;53.200;5.792;2022-08-01T07:16:12;18.90;99.90
53310;DHT22;39197;53.200;5.792;2022-08-01T07:18:37;19.50;99.90
53310;DHT22;39197;53.200;5.792;2022-08-01T07:21:03;19.70;99.90
53310;DHT22;39197;53.200;5.792;2022-08-01T07:23:28;20.20;99.90
53310;DHT22;39197;53.200;5.792;2022-08-01T07:25:54;20.70;99.90
53310;DHT22;39197;53.200;5.792;2022-08-01T07:28:20;21.20;99.90
53310;DHT22;39197;53.200;5.792;2022-08-01T07:30:45;21.30;99.90
53310;DHT22;39197;53.200;5.792;2022-08-01T07:33:11;21.50;99.90
53310;DHT22;39197;53.200;5.792;2022-08-01T07:35:37;21.70;99.90
53310;DHT22;39197;53.200;5.792;2022-08-01T07:38:04;21.60;99.90
53310;DHT22;39197;53.200;5.792;2022-08-01T07:40:30;21.50;99.90
53310;DHT22;39197;53.200;5.792;2022-08-01T07:42:55;21.50;99.90
53310;DHT22;39197;53.200;5.792;2022-08-01T07:45:21;21.40;99.90
53310;DHT22;39197;53.200;5.792;2022-08-01T07:47:47;21.40;99.90
53310;DHT22;39197;53.200;5.792;2022-08-01T07:50:15;21.50;99.90
53310;DHT22;39197;53.200;5.792;2022-08-01T07:52:41;22.00;99.90
53310;DHT22;39197;53.200;5.792;2022-08-01T07:55:07;22.10;99.90
53310;DHT22;39197;53.200;5.792;2022-08-01T07:57:33;22.50;99.90
53310;DHT22;39197;53.200;5.792;2022-08-01T07:59:59;22.50;99.90
53310;DHT22;39197;53.200;5.792;2022-08-01T08:02:25;22.30;99.90
53310;DHT22;39197;53.200;5.792;2022-08-01T08:04:50;22.10;99.90
53310;DHT22;39197;53.200;5.792;2022-08-01T08:07:16;21.90;99.90
53310;DHT22;39197;53.200;5.792;2022-08-01T08:09:42;21.90;99.90
53310;DHT22;39197;53.200;5.792;2022-08-01T08:12:07;22.20;99.90
53310;DHT22;39197;53.200;5.792;2022-08-01T08:14:33;22.10;99.90
53310;DHT22;39197;53.200;5.792;2022-08-01T08:16:59;22.20;99.90
53310;DHT22;39197;53.200;5.792;2022-08-01T08:19:24;22.20;99.90
53310;DHT22;39197;53.200;5.792;2022-08-01T08:21:50;22.40;99.90
53310;DHT22;39197;53.200;5.792;2022-08-01T08:24:15;22.50;99.90
53310;DHT22;39197;53.200;5.792;2022-08-01T08:26:51;22.60;99.90
53310;DHT22;39197;53.200;5.792;2022-08-01T08:29:18;23.00;99.90
53310;DHT22;39197;53.200;5.792;2022-08-01T08:31:44;22.90;99.90
53310;DHT22;39197;53.200;5.792;2022-08-01T08:34:10;22.70;99.90
53310;DHT22;39197;53.200;5.792;2022-08-01T08:36:36;22.70;99.90
53310;DHT22;39197;53.200;5.792;2022-08-01T08:39:02;22.60;99.90
53310;DHT22;39197;53.200;5.792;2022-08-01T08:41:35;22.70;99.90
53310;DHT22;39197;53.200;5.792;2022-08-01T08:44:05;22.50;99.90
53310;DHT22;39197;53.200;5.792;2022-08-01T08:46:32;22.70;99.90
53310;DHT22;39197;53.200;5.792;2022-08-01T08:48:59;22.50;99.90
53310;DHT22;39197;53.200;5.792;2022-08-01T08:51:30;22.60;99.90
53310;DHT22;39197;53.200;5.792;2022-08-01T08:53:56;23.00;99.90
53310;DHT22;39197;53.200;5.792;2022-08-01T08:56:24;23.40;99.90
53310;DHT22;39197;53.200;5.792;2022-08-01T08:58:51;23.70;99.90
53310;DHT22;39197;53.200;5.792;2022-08-01T09:01:17;23.80;99.90
53310;DHT22;39197;53.200;5.792;2022-08-01T09:03:44;23.60;99.90
53310;DHT22;39197;53.200;5.792;2022-08-01T09:06:10;23.50;99.90
53310;DHT22;39197;53.200;5.792;2022-08-01T09:08:36;23.70;99.90
53310;DHT22;39197;53.200;5.792;2022-08-01T09:11:02;23.70;99.90
53310;DHT22;39197;53.200;5.792;2022-08-01T09:13:27;23.70;99.90
53310;DHT22;39197;53.200;5.792;2022-08-01T09:15:54;23.80;99.90
53310;DHT22;39197;53.200;5.792;2022-08-01T09:18:37;23.80;99.90
53310;DHT22;39197;53.200;5.792;2022-08-01T09:23:36;23.30;99.90
53310;DHT22;39197;53.200;5.792;2022-08-01T09:26:08;23.40;99.90
53310;DHT22;39197;53.200;5.792;2022-08-01T09:28:35;23.80;99.90
53310;DHT22;39197;53.200;5.792;2022-08-01T09:31:12;23.80;99.90
53310;DHT22;39197;53.200;5.792;2022-08-01T09:33:55;23.80;99.90
53310;DHT22;39197;53.200;5.792;2022-08-01T09:36:24;23.80;99.90
53310;DHT22;39197;53.200;5.792;2022-08-01T09:38:52;24.10;99.90
53310;DHT22;39197;53.200;5.792;2022-08-01T09:41:28;24.40;99.90
53310;DHT22;39197;53.200;5.792;2022-08-01T09:43:55;23.90;99.90
53310;DHT22;39197;53.200;5.792;2022-08-01T09:46:21;23.50;99.90
53310;DHT22;39197;53.200;5.792;2022-08-01T09:49:00;23.50;99.90
53310;DHT22;39197;53.200;5.792;2022-08-01T09:51:31;23.70;99.90
53310;DHT22;39197;53.200;5.792;2022-08-01T09:53:57;24.00;99.90
53310;DHT22;39197;53.200;5.792;2022-08-01T09:56:24;24.20;99.90
53310;DHT22;39197;53.200;5.792;2022-08-01T09:58:55;24.10;99.90
53310;DHT22;39197;53.200;5.792;2022-08-01T10:01:21;24.60;99.90
53310;DHT22;39197;53.200;5.792;2022-08-01T10:04:07;23.90;99.90
53310;DHT22;39197;53.200;5.792;2022-08-01T10:06:33;24.30;99.90
53310;DHT22;39197;53.200;5.792;2022-08-01T10:08:58;24.60;99.90
53310;DHT22;39197;53.200;5.792;2022-08-01T10:11:24;24.90;99.90
53310;DHT22;39197;53.200;5.792;2022-08-01T10:13:51;25.20;99.90
53310;DHT22;39197;53.200;5.792;2022-08-01T10:16:17;25.00;99.90
53310;DHT22;39197;53.200;5.792;2022-08-01T10:18:45;25.20;99.90
53310;DHT22;39197;53.200;5.792;2022-08-01T10:21:11;24.90;99.80
53310;DHT22;39197;53.200;5.792;2022-08-01T10:23:38;25.10;99.90
53310;DHT22;39197;53.200;5.792;2022-08-01T10:26:07;24.90;99.80
53310;DHT22;39197;53.200;5.792;2022-08-01T10:28:35;25.10;99.40
53310;DHT22;39197;53.200;5.792;2022-08-01T10:31:02;24.60;98.50
53310;DHT22;39197;53.200;5.792;2022-08-01T10:33:29;24.70;99.60
53310;DHT22;39197;53.200;5.792;2022-08-01T10:35:55;24.20;99.90
53310;DHT22;39197;53.200;5.792;2022-08-01T10:38:21;24.00;99.90
53310;DHT22;39197;53.200;5.792;2022-08-01T10:40:46;23.90;99.90
53310;DHT22;39197;53.200;5.792;2022-08-01T10:43:13;23.80;99.90
53310;DHT22;39197;53.200;5.792;2022-08-01T10:45:41;24.00;99.50
53310;DHT22;39197;53.200;5.792;2022-08-01T10:50:53;24.40;99.90
53310;DHT22;39197;53.200;5.792;2022-08-01T10:53:25;24.40;99.40
53310;DHT22;39197;53.200;5.792;2022-08-01T10:55:59;25.20;97.40
53310;DHT22;39197;53.200;5.792;2022-08-01T10:58:30;25.80;96.60
53310;DHT22;39197;53.200;5.792;2022-08-01T11:03:44;25.30;96.60
53310;DHT22;39197;53.200;5.792;2022-08-01T11:06:42;25.40;96.10
53310;DHT22;39197;53.200;5.792;2022-08-01T11:11:57;25.80;95.10
53310;DHT22;39197;53.200;5.792;2022-08-01T11:14:22;25.60;95.40
53310;DHT22;39197;53.200;5.792;2022-08-01T11:16:48;25.10;95.60
53310;DHT22;39197;53.200;5.792;2022-08-01T11:19:13;25.00;95.70
53310;DHT22;39197;53.200;5.792;2022-08-01T11:32:52;25.40;94.90
53310;DHT22;39197;53.200;5.792;2022-08-01T11:35:18;25.10;95.00
53310;DHT22;39197;53.200;5.792;2022-08-01T11:37:46;25.20;95.00
53310;DHT22;39197;53.200;5.792;2022-08-01T11:40:20;25.70;94.40
53310;DHT22;39197;53.200;5.792;2022-08-01T11:42:47;25.80;93.30
53310;DHT22;39197;53.200;5.792;2022-08-01T11:45:12;25.80;94.00
53310;DHT22;39197;53.200;5.792;2022-08-01T11:47:45;26.00;93.80
53310;DHT22;39197;53.200;5.792;2022-08-01T11:50:33;25.80;92.90
53310;DHT22;39197;53.200;5.792;2022-08-01T11:53:04;26.10;92.80
53310;DHT22;39197;53.200;5.792;2022-08-01T11:55:30;26.50;92.80
53310;DHT22;39197;53.200;5.792;2022-08-01T11:58:01;25.60;92.50
53310;DHT22;39197;53.200;5.792;2022-08-01T12:00:27;25.90;93.00
53310;DHT22;39197;53.200;5.792;2022-08-01T12:03:01;26.10;92.90
53310;DHT22;39197;53.200;5.792;2022-08-01T12:05:28;26.40;92.80
53310;DHT22;39197;53.200;5.792;2022-08-01T12:07:55;26.70;92.50
53310;DHT22;39197;53.200;5.792;2022-08-01T12:10:24;26.60;92.10
53310;DHT22;39197;53.200;5.792;2022-08-01T12:12:55;26.60;92.10
53310;DHT22;39197;53.200;5.792;2022-08-01T12:15:23;26.90;91.70
53310;DHT22;39197;53.200;5.792;2022-08-01T12:17:57;27.00;91.40
53310;DHT22;39197;53.200;5.792;2022-08-01T12:20:25;26.60;91.10
53310;DHT22;39197;53.200;5.792;2022-08-01T12:22:55;26.30;91.50
53310;DHT22;39197;53.200;5.792;2022-08-01T12:25:22;26.10;90.90
53310;DHT22;39197;53.200;5.792;2022-08-01T12:27:48;26.00;91.40
53310;DHT22;39197;53.200;5.792;2022-08-01T12:30:17;25.70;90.70
53310;DHT22;39197;53.200;5.792;2022-08-01T12:32:45;26.10;90.80
53310;DHT22;39197;53.200;5.792;2022-08-01T12:35:16;26.00;90.60
53310;DHT22;39197;53.200;5.792;2022-08-01T12:37:45;25.80;90.50
53310;DHT22;39197;53.200;5.792;2022-08-01T12:42:41;26.30;90.30
53310;DHT22;39197;53.200;5.792;2022-08-01T12:45:12;26.50;89.30
53310;DHT22;39197;53.200;5.792;2022-08-01T12:47:38;26.50;88.20
53310;DHT22;39197;53.200;5.792;2022-08-01T12:50:11;26.60;89.80
53310;DHT22;39197;53.200;5.792;2022-08-01T12:52:38;26.60;89.80
53310;DHT22;39197;53.200;5.792;2022-08-01T12:55:24;26.60;90.90
53310;DHT22;39197;53.200;5.792;2022-08-01T12:58:06;26.70;88.80
53310;DHT22;39197;53.200;5.792;2022-08-01T13:00:32;27.10;89.90
53310;DHT22;39197;53.200;5.792;2022-08-01T13:03:11;26.90;89.80
53310;DHT22;39197;53.200;5.792;2022-08-01T13:05:54;27.30;88.30
53310;DHT22;39197;53.200;5.792;2022-08-01T13:08:22;26.50;87.00
53310;DHT22;39197;53.200;5.792;2022-08-01T13:10:49;26.70;88.70
53310;DHT22;39197;53.200;5.792;2022-08-01T13:13:18;26.80;89.00
53310;DHT22;39197;53.200;5.792;2022-08-01T13:15:45;27.10;87.40
53310;DHT22;39197;53.200;5.792;2022-08-01T13:18:31;27.50;86.50
53310;DHT22;39197;53.200;5.792;2022-08-01T13:23:40;27.10;88.10
53310;DHT22;39197;53.200;5.792;2022-08-01T13:26:06;27.10;87.20
53310;DHT22;39197;53.200;5.792;2022-08-01T13:28:32;27.40;87.10
53310;DHT22;39197;53.200;5.792;2022-08-01T13:31:04;27.50;87.20
53310;DHT22;39197;53.200;5.792;2022-08-01T13:33:45;26.90;87.40
53310;DHT22;39197;53.200;5.792;2022-08-01T13:36:11;26.70;87.30
53310;DHT22;39197;53.200;5.792;2022-08-01T13:38:38;26.20;89.00
53310;DHT22;39197;53.200;5.792;2022-08-01T13:41:22;26.10;89.50
53310;DHT22;39197;53.200;5.792;2022-08-01T13:43:48;26.20;89.60
53310;DHT22;39197;53.200;5.792;2022-08-01T13:46:14;26.00;90.50
53310;DHT22;39197;53.200;5.792;2022-08-01T13:48:39;26.40;89.80
53310;DHT22;39197;53.200;5.792;2022-08-01T13:51:05;26.00;89.40
53310;DHT22;39197;53.200;5.792;2022-08-01T13:53:31;26.10;90.00
53310;DHT22;39197;53.200;5.792;2022-08-01T13:55:56;26.00;89.90
53310;DHT22;39197;53.200;5.792;2022-08-01T13:58:22;25.90;89.30
53310;DHT22;39197;53.200;5.792;2022-08-01T14:00:48;25.80;89.60
53310;DHT22;39197;53.200;5.792;2022-08-01T14:03:14;25.70;89.80
53310;DHT22;39197;53.200;5.792;2022-08-01T14:05:42;25.50;89.70
53310;DHT22;39197;53.200;5.792;2022-08-01T14:08:08;25.80;89.70
53310;DHT22;39197;53.200;5.792;2022-08-01T14:10:34;26.10;88.10
53310;DHT22;39197;53.200;5.792;2022-08-01T14:13:00;26.30;87.50
53310;DHT22;39197;53.200;5.792;2022-08-01T14:15:25;26.60;86.70
53310;DHT22;39197;53.200;5.792;2022-08-01T14:17:51;26.40;86.70
53310;DHT22;39197;53.200;5.792;2022-08-01T14:20:17;26.20;86.30
53310;DHT22;39197;53.200;5.792;2022-08-01T14:22:48;26.30;85.70
53310;DHT22;39197;53.200;5.792;2022-08-01T14:25:16;26.30;83.90
53310;DHT22;39197;53.200;5.792;2022-08-01T14:27:43;26.00;85.00
53310;DHT22;39197;53.200;5.792;2022-08-01T14:30:10;26.00;86.20
53310;DHT22;39197;53.200;5.792;2022-08-01T14:32:35;26.20;86.60
53310;DHT22;39197;53.200;5.792;2022-08-01T14:35:02;26.50;86.10
53310;DHT22;39197;53.200;5.792;2022-08-01T14:37:28;26.10;87.00
53310;DHT22;39197;53.200;5.792;2022-08-01T14:39:58;26.30;86.40
53310;DHT22;39197;53.200;5.792;2022-08-01T14:42:23;26.10;85.80
53310;DHT22;39197;53.200;5.792;2022-08-01T14:44:49;26.40;86.90
53310;DHT22;39197;53.200;5.792;2022-08-01T14:47:15;26.30;86.70
53310;DHT22;39197;53.200;5.792;2022-08-01T14:49:41;26.20;86.70
53310;DHT22;39197;53.200;5.792;2022-08-01T14:52:07;26.10;86.60
53310;DHT22;39197;53.200;5.792;2022-08-01T14:54:32;26.10;87.60
53310;DHT22;39197;53.200;5.792;2022-08-01T14:56:58;25.80;89.10
53310;DHT22;39197;53.200;5.792;2022-08-01T14:59:24;26.30;88.10
53310;DHT22;39197;53.200;5.792;2022-08-01T15:01:49;26.50;87.50
53310;DHT22;39197;53.200;5.792;2022-08-01T15:04:15;26.50;87.20
53310;DHT22;39197;53.200;5.792;2022-08-01T15:06:43;26.60;87.20
53310;DHT22;39197;53.200;5.792;2022-08-01T15:09:08;26.80;86.40
53310;DHT22;39197;53.200;5.792;2022-08-01T15:11:34;26.60;85.80
53310;DHT22;39197;53.200;5.792;2022-08-01T15:13:59;26.30;86.00
53310;DHT22;39197;53.200;5.792;2022-08-01T15:16:43;26.30;85.70
53310;DHT22;39197;53.200;5.792;2022-08-01T15:19:09;26.20;85.60
53310;DHT22;39197;53.200;5.792;2022-08-01T15:21:34;26.00;86.50
53310;DHT22;39197;53.200;5.792;2022-08-01T15:24:00;25.70;87.10
53310;DHT22;39197;53.200;5.792;2022-08-01T15:26:26;26.20;86.90
53310;DHT22;39197;53.200;5.792;2022-08-01T15:28:52;26.20;86.30
53310;DHT22;39197;53.200;5.792;2022-08-01T15:31:18;26.60;86.00
53310;DHT22;39197;53.200;5.792;2022-08-01T15:33:43;25.90;86.20
53310;DHT22;39197;53.200;5.792;2022-08-01T15:36:09;26.10;86.20
53310;DHT22;39197;53.200;5.792;2022-08-01T15:38:35;26.10;86.30
53310;DHT22;39197;53.200;5.792;2022-08-01T15:41:00;25.90;86.40
53310;DHT22;39197;53.200;5.792;2022-08-01T15:43:26;25.70;85.90
53310;DHT22;39197;53.200;5.792;2022-08-01T15:45:51;26.10;85.30
53310;DHT22;39197;53.200;5.792;2022-08-01T15:48:17;26.00;84.90
53310;DHT22;39197;53.200;5.792;2022-08-01T15:50:43;25.50;85.30
53310;DHT22;39197;53.200;5.792;2022-08-01T15:53:08;25.70;85.80
53310;DHT22;39197;53.200;5.792;2022-08-01T15:55:38;26.00;85.60
53310;DHT22;39197;53.200;5.792;2022-08-01T15:58:04;25.60;86.60
53310;DHT22;39197;53.200;5.792;2022-08-01T16:00:30;25.20;86.70
53310;DHT22;39197;53.200;5.792;2022-08-01T16:02:55;24.90;87.10
53310;DHT22;39197;53.200;5.792;2022-08-01T16:05:22;24.70;87.50
53310;DHT22;39197;53.200;5.792;2022-08-01T16:07:48;24.70;87.90
53310;DHT22;39197;53.200;5.792;2022-08-01T16:10:14;24.80;88.20
53310;DHT22;39197;53.200;5.792;2022-08-01T16:12:40;24.50;88.40
53310;DHT22;39197;53.200;5.792;2022-08-01T16:15:06;24.40;87.80